sensor_id;sensor_type;location;lat;lon;timestamp;temperature;humidity
47520;DHT22;33252;48.122;11.538;2022-10-30T00:02:09;13.60;99.90
47520;DHT22;33252;48.122;11.538;2022-10-30T00:04:35;13.50;99.90
47520;DHT22;33252;48.122;11.538;2022-10-30T00:07:00;13.50;99.90
47520;DHT22;33252;48.122;11.538;2022-10-30T00:09:26;13.40;99.90
47520;DHT22;33252;48.122;11.538;2022-10-30T00:11:52;13.40;99.90
47520;DHT22;33252;48.122;11.538;2022-10-30T00:14:17;13.40;99.90
47520;DHT22;33252;48.122;11.538;2022-10-30T00:16:43;13.40;99.90
47520;DHT22;33252;48.122;11.538;2022-10-30T00:19:08;13.40;99.90
47520;DHT22;33252;48.122;11.538;2022-10-30T00:21:34;13.40;99.90
47520;DHT22;33252;48.122;11.538;2022-10-30T00:24:00;13.40;99.90
47520;DHT22;33252;48.122;11.538;2022-10-30T00:26:25;13.30;99.90
47520;DHT22;33252;48.122;11.538;2022-10-30T00:28:54;13.30;99.90
47520;DHT22;33252;48.122;11.538;2022-10-30T00:31:20;13.20;99.90
47520;DHT22;33252;48.122;11.538;2022-10-30T00:33:53;13.20;99.90
47520;DHT22;33252;48.122;11.538;2022-10-30T00:36:19;13.20;99.90
47520;DHT22;33252;48.122;11.538;2022-10-30T00:38:48;13.10;99.90
47520;DHT22;33252;48.122;11.538;2022-10-30T00:41:22;12.90;99.90
47520;DHT22;33252;48.122;11.538;2022-10-30T00:43:48;12.90;99.90
47520;DHT22;33252;48.122;11.538;2022-10-30T00:46:22;12.90;99.90
47520;DHT22;33252;48.122;11.538;2022-10-30T00:49:02;12.90;99.90
47520;DHT22;33252;48.122;11.538;2022-10-30T00:51:31;12.70;99.90
47520;DHT22;33252;48.122;11.538;2022-10-30T00:53:59;12.90;99.90
47520;DHT22;33252;48.122;11.538;2022-10-30T00:56:27;12.70;99.90
47520;DHT22;33252;48.122;11.538;2022-10-30T00:59:01;12.80;99.90
47520;DHT22;33252;48.122;11.538;2022-10-30T01:01:28;12.70;99.90
47520;DHT22;33252;48.122;11.538;2022-10-30T01:03:58;12.80;99.90
47520;DHT22;33252;48.122;11.538;2022-10-30T01:06:25;12.80;99.90
47520;DHT22;33252;48.122;11.538;2022-10-30T01:08:53;12.80;99.90
47520;DHT22;33252;48.122;11.538;2022-10-30T01:11:19;12.80;99.90
47520;DHT22;33252;48.122;11.538;2022-10-30T01:13:47;12.90;99.90
47520;DHT22;33252;48.122;11.538;2022-10-30T01:30:10;12.60;99.90
47520;DHT22;33252;48.122;11.538;2022-10-30T01:32:41;12.60;99.90
47520;DHT22;33252;48.122;11.538;2022-10-30T01:35:33;12.60;99.90
47520;DHT22;33252;48.122;11.538;2022-10-30T01:38:21;12.50;99.90
47520;DHT22;33252;48.122;11.538;2022-10-30T01:40:48;12.70;99.90
47520;DHT22;33252;48.122;11.538;2022-10-30T01:43:13;12.50;99.90
47520;DHT22;33252;48.122;11.538;2022-10-30T01:59:31;12.30;99.90
47520;DHT22;33252;48.122;11.538;2022-10-30T02:01:58;12.30;99.90
47520;DHT22;33252;48.122;11.538;2022-10-30T02:04:24;12.30;99.90
47520;DHT22;33252;48.122;11.538;2022-10-30T02:06:51;12.60;99.90
47520;DHT22;33252;48.122;11.538;2022-10-30T02:09:17;12.80;99.90
47520;DHT22;33252;48.122;11.538;2022-10-30T02:11:44;12.60;99.90
47520;DHT22;33252;48.122;11.538;2022-10-30T02:14:12;12.70;99.90
47520;DHT22;33252;48.122;11.538;2022-10-30T02:16:44;12.70;99.90
47520;DHT22;33252;48.122;11.538;2022-10-30T02:19:12;12.80;99.90
47520;DHT22;33252;48.122;11.538;2022-10-30T02:21:37;12.60;99.90
47520;DHT22;33252;48.122;11.538;2022-10-30T02:24:03;12.50;99.90
47520;DHT22;33252;48.122;11.538;2022-10-30T02:26:29;12.30;99.90
47520;DHT22;33252;48.122;11.538;2022-10-30T02:28:55;12.10;99.90
47520;DHT22;33252;48.122;11.538;2022-10-30T02:31:20;12.00;99.90
47520;DHT22;33252;48.122;11.538;2022-10-30T02:33:47;12.00;99.90
47520;DHT22;33252;48.122;11.538;2022-10-30T02:36:13;12.00;99.90
47520;DHT22;33252;48.122;11.538;2022-10-30T02:38:42;12.20;99.90
47520;DHT22;33252;48.122;11.538;2022-10-30T02:41:08;11.90;99.90
47520;DHT22;33252;48.122;11.538;2022-10-30T02:43:34;12.00;99.90
47520;DHT22;33252;48.122;11.538;2022-10-30T02:46:00;11.80;99.90
47520;DHT22;33252;48.122;11.538;2022-10-30T02:48:26;11.90;99.90
47520;DHT22;33252;48.122;11.538;2022-10-30T02:50:51;12.00;99.90
47520;DHT22;33252;48.122;11.538;2022-10-30T02:53:17;12.00;99.90
47520;DHT22;33252;48.122;11.538;2022-10-30T02:55:43;12.20;99.90
47520;DHT22;33252;48.122;11.538;2022-10-30T02:58:08;12.10;99.90
47520;DHT22;33252;48.122;11.538;2022-10-30T03:00:34;12.00;99.90
47520;DHT22;33252;48.122;11.538;2022-10-30T03:02:59;12.00;99.90
47520;DHT22;33252;48.122;11.538;2022-10-30T03:05:25;11.80;99.90
47520;DHT22;33252;48.122;11.538;2022-10-30T03:07:52;11.80;99.90
47520;DHT22;33252;48.122;11.538;2022-10-30T03:10:18;11.90;99.90
47520;DHT22;33252;48.122;11.538;2022-10-30T03:12:44;11.80;99.90
47520;DHT22;33252;48.122;11.538;2022-10-30T03:15:10;11.90;99.90
47520;DHT22;33252;48.122;11.538;2022-10-30T03:17:35;11.90;99.90
47520;DHT22;33252;48.122;11.538;2022-10-30T03:20:01;12.10;99.90
47520;DHT22;33252;48.122;11.538;2022-10-30T03:22:27;11.80;99.90
47520;DHT22;33252;48.122;11.538;2022-10-30T03:24:52;11.80;99.90
47520;DHT22;33252;48.122;11.538;2022-10-30T03:27:18;12.00;99.90
47520;DHT22;33252;48.122;11.538;2022-10-30T03:29:43;12.00;99.90
47520;DHT22;33252;48.122;11.538;2022-10-30T03:32:10;12.00;99.90
47520;DHT22;33252;48.122;11.538;2022-10-30T03:34:36;12.10;99.90
47520;DHT22;33252;48.122;11.538;2022-10-30T03:37:02;12.00;99.90
47520;DHT22;33252;48.122;11.538;2022-10-30T03:39:28;11.90;99.90
47520;DHT22;33252;48.122;11.538;2022-10-30T03:41:54;11.80;99.90
47520;DHT22;33252;48.122;11.538;2022-10-30T03:44:19;12.00;99.90
47520;DHT22;33252;48.122;11.538;2022-10-30T03:46:45;12.00;99.90
47520;DHT22;33252;48.122;11.538;2022-10-30T03:49:10;11.90;99.90
47520;DHT22;33252;48.122;11.538;2022-10-30T03:51:36;11.80;99.90
47520;DHT22;33252;48.122;11.538;2022-10-30T03:54:02;11.80;99.90
47520;DHT22;33252;48.122;11.538;2022-10-30T03:56:27;11.90;99.90
47520;DHT22;33252;48.122;11.538;2022-10-30T03:58:53;11.70;99.90
47520;DHT22;33252;48.122;11.538;2022-10-30T04:01:19;11.70;99.90
47520;DHT22;33252;48.122;11.538;2022-10-30T04:03:44;11.60;99.90
47520;DHT22;33252;48.122;11.538;2022-10-30T04:06:10;11.50;99.90
47520;DHT22;33252;48.122;11.538;2022-10-30T04:08:36;11.60;99.90
47520;DHT22;33252;48.122;11.538;2022-10-30T04:11:01;11.50;99.90
47520;DHT22;33252;48.122;11.538;2022-10-30T04:13:27;11.50;99.90
47520;DHT22;33252;48.122;11.538;2022-10-30T04:15:53;11.40;99.90
47520;DHT22;33252;48.122;11.538;2022-10-30T04:18:18;11.40;99.90
47520;DHT22;33252;48.122;11.538;2022-10-30T04:20:45;11.40;99.90
47520;DHT22;33252;48.122;11.538;2022-10-30T04:23:16;11.40;99.90
47520;DHT22;33252;48.122;11.538;2022-10-30T04:25:42;11.30;99.90
47520;DHT22;33252;48.122;11.538;2022-10-30T04:28:08;11.40;99.90
47520;DHT22;33252;48.122;11.538;2022-10-30T04:30:34;11.40;99.90
47520;DHT22;33252;48.122;11.538;2022-10-30T04:33:03;11.20;99.90
47520;DHT22;33252;48.122;11.538;2022-10-30T04:35:31;11.20;99.90
47520;DHT22;33252;48.122;11.538;2022-10-30T04:38:08;11.10;99.90
47520;DHT22;33252;48.122;11.538;2022-10-30T04:40:37;11.20;99.90
47520;DHT22;33252;48.122;11.538;2022-10-30T04:43:04;11.20;99.90
47520;DHT22;33252;48.122;11.538;2022-10-30T04:45:30;11.20;99.90
47520;DHT22;33252;48.122;11.538;2022-10-30T04:48:08;11.20;99.90
47520;DHT22;33252;48.122;11.538;2022-10-30T04:50:34;11.10;99.90
47520;DHT22;33252;48.122;11.538;2022-10-30T04:53:14;11.10;99.90
47520;DHT22;33252;48.122;11.538;2022-10-30T04:55:40;11.10;99.90
47520;DHT22;33252;48.122;11.538;2022-10-30T04:58:07;11.10;99.90
47520;DHT22;33252;48.122;11.538;2022-10-30T05:00:33;11.20;99.90
47520;DHT22;33252;48.122;11.538;2022-10-30T05:03:02;11.30;99.90
47520;DHT22;33252;48.122;11.538;2022-10-30T05:05:29;11.00;99.90
47520;DHT22;33252;48.122;11.538;2022-10-30T05:07:55;11.00;99.90
47520;DHT22;33252;48.122;11.538;2022-10-30T05:10:20;11.10;99.90
47520;DHT22;33252;48.122;11.538;2022-10-30T05:12:46;11.10;99.90
47520;DHT22;33252;48.122;11.538;2022-10-30T05:15:13;11.00;99.90
47520;DHT22;33252;48.122;11.538;2022-10-30T05:17:39;11.00;99.90
47520;DHT22;33252;48.122;11.538;2022-10-30T05:20:05;10.80;99.90
47520;DHT22;33252;48.122;11.538;2022-10-30T05:22:31;10.90;99.90
47520;DHT22;33252;48.122;11.538;2022-10-30T05:24:57;10.90;99.90
47520;DHT22;33252;48.122;11.538;2022-10-30T05:27:22;10.90;99.90
47520;DHT22;33252;48.122;11.538;2022-10-30T05:29:48;10.90;99.90
47520;DHT22;33252;48.122;11.538;2022-10-30T05:32:14;10.90;99.90
47520;DHT22;33252;48.122;11.538;2022-10-30T05:34:39;10.90;99.90
47520;DHT22;33252;48.122;11.538;2022-10-30T05:37:05;10.90;99.90
47520;DHT22;33252;48.122;11.538;2022-10-30T05:39:30;10.80;99.90
47520;DHT22;33252;48.122;11.538;2022-10-30T05:41:56;10.90;99.90
47520;DHT22;33252;48.122;11.538;2022-10-30T05:44:22;10.90;99.90
47520;DHT22;33252;48.122;11.538;2022-10-30T05:46:47;10.80;99.90
47520;DHT22;33252;48.122;11.538;2022-10-30T05:49:13;10.70;99.90
47520;DHT22;33252;48.122;11.538;2022-10-30T05:51:39;11.10;99.90
47520;DHT22;33252;48.122;11.538;2022-10-30T05:54:04;11.20;99.90
47520;DHT22;33252;48.122;11.538;2022-10-30T05:56:30;11.20;99.90
47520;DHT22;33252;48.122;11.538;2022-10-30T05:58:55;11.40;99.90
47520;DHT22;33252;48.122;11.538;2022-10-30T06:01:21;11.40;99.90
47520;DHT22;33252;48.122;11.538;2022-10-30T06:03:47;11.40;99.90
47520;DHT22;33252;48.122;11.538;2022-10-30T06:06:12;11.20;99.90
47520;DHT22;33252;48.122;11.538;2022-10-30T06:08:38;11.20;99.90
47520;DHT22;33252;48.122;11.538;2022-10-30T06:11:04;11.30;99.90
47520;DHT22;33252;48.122;11.538;2022-10-30T06:13:29;11.30;99.90
47520;DHT22;33252;48.122;11.538;2022-10-30T06:15:55;11.30;99.90
47520;DHT22;33252;48.122;11.538;2022-10-30T06:18:22;11.30;99.90
47520;DHT22;33252;48.122;11.538;2022-10-30T06:20:48;11.20;99.90
47520;DHT22;33252;48.122;11.538;2022-10-30T06:23:14;11.20;99.90
47520;DHT22;33252;48.122;11.538;2022-10-30T06:25:39;11.30;99.90
47520;DHT22;33252;48.122;11.538;2022-10-30T06:28:05;11.20;99.90
47520;DHT22;33252;48.122;11.538;2022-10-30T06:30:31;11.20;99.90
47520;DHT22;33252;48.122;11.538;2022-10-30T06:32:59;11.30;99.90
47520;DHT22;33252;48.122;11.538;2022-10-30T06:35:25;11.30;99.90
47520;DHT22;33252;48.122;11.538;2022-10-30T06:37:51;11.40;99.90
47520;DHT22;33252;48.122;11.538;2022-10-30T06:40:18;11.50;99.90
47520;DHT22;33252;48.122;11.538;2022-10-30T06:42:49;11.40;99.90
47520;DHT22;33252;48.122;11.538;2022-10-30T06:45:16;11.50;99.90
47520;DHT22;33252;48.122;11.538;2022-10-30T06:47:42;11.50;99.90
47520;DHT22;33252;48.122;11.538;2022-10-30T06:50:13;11.60;99.90
47520;DHT22;33252;48.122;11.538;2022-10-30T06:52:39;11.60;99.90
47520;DHT22;33252;48.122;11.538;2022-10-30T06:55:05;11.80;99.90
47520;DHT22;33252;48.122;11.538;2022-10-30T06:57:31;11.80;99.90
47520;DHT22;33252;48.122;11.538;2022-10-30T06:59:56;11.90;99.90
47520;DHT22;33252;48.122;11.538;2022-10-30T07:02:22;12.00;99.90
47520;DHT22;33252;48.122;11.538;2022-10-30T07:04:47;12.00;99.90
47520;DHT22;33252;48.122;11.538;2022-10-30T07:07:14;12.00;99.90
47520;DHT22;33252;48.122;11.538;2022-10-30T07:09:40;12.10;99.90
47520;DHT22;33252;48.122;11.538;2022-10-30T07:12:07;12.20;99.90
47520;DHT22;33252;48.122;11.538;2022-10-30T07:14:33;12.30;99.90
47520;DHT22;33252;48.122;11.538;2022-10-30T07:16:59;12.30;99.90
47520;DHT22;33252;48.122;11.538;2022-10-30T07:19:25;12.40;99.90
47520;DHT22;33252;48.122;11.538;2022-10-30T07:21:51;12.60;99.90
47520;DHT22;33252;48.122;11.538;2022-10-30T07:24:16;12.60;99.90
47520;DHT22;33252;48.122;11.538;2022-10-30T07:26:42;12.70;99.90
47520;DHT22;33252;48.122;11.538;2022-10-30T07:29:08;12.80;99.90
47520;DHT22;33252;48.122;11.538;2022-10-30T07:31:33;12.90;99.90
47520;DHT22;33252;48.122;11.538;2022-10-30T07:33:59;13.00;99.90
47520;DHT22;33252;48.122;11.538;2022-10-30T07:36:25;13.00;99.90
47520;DHT22;33252;48.122;11.538;2022-10-30T07:38:51;13.10;99.90
47520;DHT22;33252;48.122;11.538;2022-10-30T07:41:17;13.20;99.90
47520;DHT22;33252;48.122;11.538;2022-10-30T07:43:43;13.20;99.90
47520;DHT22;33252;48.122;11.538;2022-10-30T07:46:09;13.30;99.90
47520;DHT22;33252;48.122;11.538;2022-10-30T07:48:34;13.40;99.90
47520;DHT22;33252;48.122;11.538;2022-10-30T07:51:00;13.40;99.90
47520;DHT22;33252;48.122;11.538;2022-10-30T07:53:26;13.50;99.90
47520;DHT22;33252;48.122;11.538;2022-10-30T07:55:51;13.70;99.90
47520;DHT22;33252;48.122;11.538;2022-10-30T07:58:17;13.70;99.90
47520;DHT22;33252;48.122;11.538;2022-10-30T08:00:43;13.70;99.90
47520;DHT22;33252;48.122;11.538;2022-10-30T08:03:10;13.80;99.90
47520;DHT22;33252;48.122;11.538;2022-10-30T08:05:35;13.90;99.90
47520;DHT22;33252;48.122;11.538;2022-10-30T08:08:01;13.90;99.90
47520;DHT22;33252;48.122;11.538;2022-10-30T08:10:27;14.20;99.20
47520;DHT22;33252;48.122;11.538;2022-10-30T08:12:53;14.40;98.90
47520;DHT22;33252;48.122;11.538;2022-10-30T08:15:18;14.40;99.80
47520;DHT22;33252;48.122;11.538;2022-10-30T08:17:46;14.40;99.50
47520;DHT22;33252;48.122;11.538;2022-10-30T08:20:14;14.50;99.90
47520;DHT22;33252;48.122;11.538;2022-10-30T08:22:51;14.50;99.90
47520;DHT22;33252;48.122;11.538;2022-10-30T08:25:18;14.60;99.90
47520;DHT22;33252;48.122;11.538;2022-10-30T08:28:03;14.70;99.60
47520;DHT22;33252;48.122;11.538;2022-10-30T08:30:32;14.90;98.30
47520;DHT22;33252;48.122;11.538;2022-10-30T08:33:00;14.90;98.90
47520;DHT22;33252;48.122;11.538;2022-10-30T08:35:27;15.00;99.20
47520;DHT22;33252;48.122;11.538;2022-10-30T08:37:56;15.00;99.40
47520;DHT22;33252;48.122;11.538;2022-10-30T08:40:23;15.00;99.80
47520;DHT22;33252;48.122;11.538;2022-10-30T08:42:50;15.20;99.20
47520;DHT22;33252;48.122;11.538;2022-10-30T08:45:17;15.20;99.00
47520;DHT22;33252;48.122;11.538;2022-10-30T08:47:42;15.30;99.00
47520;DHT22;33252;48.122;11.538;2022-10-30T08:50:08;15.40;99.90
47520;DHT22;33252;48.122;11.538;2022-10-30T08:52:34;15.40;99.60
47520;DHT22;33252;48.122;11.538;2022-10-30T08:54:59;15.50;99.80
47520;DHT22;33252;48.122;11.538;2022-10-30T08:57:26;15.50;99.90
47520;DHT22;33252;48.122;11.538;2022-10-30T08:59:51;15.60;99.30
47520;DHT22;33252;48.122;11.538;2022-10-30T09:02:17;15.70;99.40
47520;DHT22;33252;48.122;11.538;2022-10-30T09:04:43;15.70;98.40
47520;DHT22;33252;48.122;11.538;2022-10-30T09:07:08;16.00;98.30
47520;DHT22;33252;48.122;11.538;2022-10-30T09:09:34;16.10;98.40
47520;DHT22;33252;48.122;11.538;2022-10-30T09:12:00;16.20;97.80
47520;DHT22;33252;48.122;11.538;2022-10-30T09:14:26;16.30;97.80
47520;DHT22;33252;48.122;11.538;2022-10-30T09:16:53;16.40;97.70
47520;DHT22;33252;48.122;11.538;2022-10-30T09:19:19;16.50;97.70
47520;DHT22;33252;48.122;11.538;2022-10-30T09:21:44;16.50;97.90
47520;DHT22;33252;48.122;11.538;2022-10-30T09:24:10;16.60;97.00
47520;DHT22;33252;48.122;11.538;2022-10-30T09:26:36;16.70;96.60
47520;DHT22;33252;48.122;11.538;2022-10-30T09:29:01;16.90;96.10
47520;DHT22;33252;48.122;11.538;2022-10-30T09:31:27;16.90;95.90
47520;DHT22;33252;48.122;11.538;2022-10-30T09:33:52;16.90;95.90
47520;DHT22;33252;48.122;11.538;2022-10-30T09:36:18;17.10;95.50
47520;DHT22;33252;48.122;11.538;2022-10-30T09:38:43;17.10;95.80
47520;DHT22;33252;48.122;11.538;2022-10-30T09:41:31;17.30;94.80
47520;DHT22;33252;48.122;11.538;2022-10-30T09:44:19;17.30;95.20
47520;DHT22;33252;48.122;11.538;2022-10-30T09:55:28;17.40;95.30
47520;DHT22;33252;48.122;11.538;2022-10-30T10:01:20;17.60;93.90
47520;DHT22;33252;48.122;11.538;2022-10-30T10:06:19;17.80;94.10
47520;DHT22;33252;48.122;11.538;2022-10-30T10:09:01;17.80;93.80
47520;DHT22;33252;48.122;11.538;2022-10-30T10:11:31;17.90;93.60
47520;DHT22;33252;48.122;11.538;2022-10-30T10:14:12;18.00;93.90
47520;DHT22;33252;48.122;11.538;2022-10-30T10:16:40;18.00;93.80
47520;DHT22;33252;48.122;11.538;2022-10-30T10:19:28;18.10;93.10
47520;DHT22;33252;48.122;11.538;2022-10-30T10:22:00;18.40;92.40
47520;DHT22;33252;48.122;11.538;2022-10-30T10:24:37;18.40;93.20
47520;DHT22;33252;48.122;11.538;2022-10-30T10:41:12;19.00;90.30
47520;DHT22;33252;48.122;11.538;2022-10-30T10:52:01;19.20;90.70
47520;DHT22;33252;48.122;11.538;2022-10-30T10:54:41;19.20;89.50
47520;DHT22;33252;48.122;11.538;2022-10-30T10:57:14;19.10;90.50
47520;DHT22;33252;48.122;11.538;2022-10-30T10:59:43;19.20;90.30
47520;DHT22;33252;48.122;11.538;2022-10-30T11:02:29;19.50;89.00
47520;DHT22;33252;48.122;11.538;2022-10-30T11:05:03;19.50;89.20
47520;DHT22;33252;48.122;11.538;2022-10-30T11:07:33;19.70;88.70
47520;DHT22;33252;48.122;11.538;2022-10-30T11:10:00;19.50;90.50
47520;DHT22;33252;48.122;11.538;2022-10-30T11:12:35;19.60;90.20
47520;DHT22;33252;48.122;11.538;2022-10-30T11:15:16;19.50;90.00
47520;DHT22;33252;48.122;11.538;2022-10-30T11:20:39;19.80;87.00
47520;DHT22;33252;48.122;11.538;2022-10-30T11:26:00;19.60;90.10
47520;DHT22;33252;48.122;11.538;2022-10-30T11:28:40;19.70;88.50
47520;DHT22;33252;48.122;11.538;2022-10-30T11:33:46;19.80;87.90
47520;DHT22;33252;48.122;11.538;2022-10-30T11:36:18;19.90;88.40
47520;DHT22;33252;48.122;11.538;2022-10-30T11:38:44;19.80;88.40
47520;DHT22;33252;48.122;11.538;2022-10-30T11:41:10;19.80;85.50
47520;DHT22;33252;48.122;11.538;2022-10-30T11:43:39;19.80;86.90
47520;DHT22;33252;48.122;11.538;2022-10-30T11:46:07;19.80;87.80
47520;DHT22;33252;48.122;11.538;2022-10-30T11:48:37;19.70;89.50
47520;DHT22;33252;48.122;11.538;2022-10-30T11:51:04;19.60;88.00
47520;DHT22;33252;48.122;11.538;2022-10-30T11:53:49;19.80;87.30
47520;DHT22;33252;48.122;11.538;2022-10-30T11:56:16;19.90;86.50
47520;DHT22;33252;48.122;11.538;2022-10-30T11:58:46;20.00;87.10
47520;DHT22;33252;48.122;11.538;2022-10-30T12:01:21;20.00;87.30
47520;DHT22;33252;48.122;11.538;2022-10-30T12:03:48;20.20;88.50
47520;DHT22;33252;48.122;11.538;2022-10-30T12:09:21;20.30;87.70
47520;DHT22;33252;48.122;11.538;2022-10-30T12:11:47;20.50;85.50
47520;DHT22;33252;48.122;11.538;2022-10-30T12:14:22;20.50;84.80
47520;DHT22;33252;48.122;11.538;2022-10-30T12:16:54;20.60;84.00
47520;DHT22;33252;48.122;11.538;2022-10-30T12:19:22;20.50;85.10
47520;DHT22;33252;48.122;11.538;2022-10-30T12:21:53;20.40;86.80
47520;DHT22;33252;48.122;11.538;2022-10-30T12:24:20;20.30;86.80
47520;DHT22;33252;48.122;11.538;2022-10-30T12:26:49;20.40;88.80
47520;DHT22;33252;48.122;11.538;2022-10-30T12:29:17;20.60;88.60
47520;DHT22;33252;48.122;11.538;2022-10-30T12:31:57;20.80;88.90
47520;DHT22;33252;48.122;11.538;2022-10-30T12:34:30;20.70;90.30
47520;DHT22;33252;48.122;11.538;2022-10-30T12:37:10;20.60;88.70
47520;DHT22;33252;48.122;11.538;2022-10-30T12:42:25;20.90;86.00
47520;DHT22;33252;48.122;11.538;2022-10-30T12:47:57;20.90;86.90
47520;DHT22;33252;48.122;11.538;2022-10-30T12:50:32;20.80;88.00
47520;DHT22;33252;48.122;11.538;2022-10-30T12:53:25;20.90;87.30
47520;DHT22;33252;48.122;11.538;2022-10-30T12:55:59;20.90;88.00
47520;DHT22;33252;48.122;11.538;2022-10-30T13:03:50;21.40;85.40
47520;DHT22;33252;48.122;11.538;2022-10-30T13:06:31;21.40;85.50
47520;DHT22;33252;48.122;11.538;2022-10-30T13:09:12;21.80;84.20
47520;DHT22;33252;48.122;11.538;2022-10-30T13:12:07;21.90;85.60
47520;DHT22;33252;48.122;11.538;2022-10-30T13:17:11;22.10;82.10
47520;DHT22;33252;48.122;11.538;2022-10-30T13:19:44;22.20;82.70
47520;DHT22;33252;48.122;11.538;2022-10-30T13:30:19;22.60;81.20
47520;DHT22;33252;48.122;11.538;2022-10-30T13:33:17;22.40;80.60
47520;DHT22;33252;48.122;11.538;2022-10-30T13:35:58;22.40;83.50
47520;DHT22;33252;48.122;11.538;2022-10-30T13:38:39;22.20;86.00
47520;DHT22;33252;48.122;11.538;2022-10-30T13:41:10;22.10;86.30
47520;DHT22;33252;48.122;11.538;2022-10-30T13:46:26;22.00;86.00
47520;DHT22;33252;48.122;11.538;2022-10-30T13:52:11;22.00;88.10
47520;DHT22;33252;48.122;11.538;2022-10-30T13:57:26;21.90;87.30
47520;DHT22;33252;48.122;11.538;2022-10-30T14:00:02;21.70;88.70
47520;DHT22;33252;48.122;11.538;2022-10-30T14:05:25;21.70;89.70
47520;DHT22;33252;48.122;11.538;2022-10-30T14:08:36;21.80;90.20
47520;DHT22;33252;48.122;11.538;2022-10-30T14:11:04;21.80;90.20
47520;DHT22;33252;48.122;11.538;2022-10-30T14:13:52;21.70;90.40
47520;DHT22;33252;48.122;11.538;2022-10-30T14:16:44;21.40;90.90
47520;DHT22;33252;48.122;11.538;2022-10-30T14:19:15;21.40;91.40
47520;DHT22;33252;48.122;11.538;2022-10-30T14:24:31;21.00;92.10
47520;DHT22;33252;48.122;11.538;2022-10-30T14:29:40;20.90;92.00
47520;DHT22;33252;48.122;11.538;2022-10-30T14:34:56;20.50;92.40
47520;DHT22;33252;48.122;11.538;2022-10-30T14:39:49;20.30;92.70
47520;DHT22;33252;48.122;11.538;2022-10-30T14:42:24;20.20;93.20
47520;DHT22;33252;48.122;11.538;2022-10-30T14:45:15;20.00;93.20
47520;DHT22;33252;48.122;11.538;2022-10-30T14:47:49;20.00;93.20
47520;DHT22;33252;48.122;11.538;2022-10-30T14:56:02;19.60;93.70
47520;DHT22;33252;48.122;11.538;2022-10-30T14:58:32;19.50;94.00
47520;DHT22;33252;48.122;11.538;2022-10-30T15:01:43;19.40;94.20
47520;DHT22;33252;48.122;11.538;2022-10-30T15:14:34;19.00;94.80
47520;DHT22;33252;48.122;11.538;2022-10-30T15:17:00;18.90;94.80
47520;DHT22;33252;48.122;11.538;2022-10-30T15:19:27;18.90;94.80
47520;DHT22;33252;48.122;11.538;2022-10-30T15:21:54;18.80;95.30
47520;DHT22;33252;48.122;11.538;2022-10-30T15:24:23;18.90;94.70
47520;DHT22;33252;48.122;11.538;2022-10-30T15:26:52;18.90;94.80
47520;DHT22;33252;48.122;11.538;2022-10-30T15:29:41;18.80;95.00
47520;DHT22;33252;48.122;11.538;2022-10-30T15:32:18;18.70;95.40
47520;DHT22;33252;48.122;11.538;2022-10-30T15:34:57;18.60;95.60
47520;DHT22;33252;48.122;11.538;2022-10-30T15:37:24;18.70;95.30
47520;DHT22;33252;48.122;11.538;2022-10-30T15:40:15;18.50;95.90
47520;DHT22;33252;48.122;11.538;2022-10-30T15:42:42;18.50;95.90
47520;DHT22;33252;48.122;11.538;2022-10-30T15:45:19;18.40;96.10
47520;DHT22;33252;48.122;11.538;2022-10-30T15:47:48;18.20;96.30
47520;DHT22;33252;48.122;11.538;2022-10-30T15:50:17;18.20;96.20
47520;DHT22;33252;48.122;11.538;2022-10-30T15:52:44;18.10;96.70
47520;DHT22;33252;48.122;11.538;2022-10-30T15:55:16;18.00;96.80
47520;DHT22;33252;48.122;11.538;2022-10-30T15:57:52;17.90;96.80
47520;DHT22;33252;48.122;11.538;2022-10-30T16:00:23;17.80;96.90
47520;DHT22;33252;48.122;11.538;2022-10-30T16:05:33;17.70;97.00
47520;DHT22;33252;48.122;11.538;2022-10-30T16:08:01;17.70;97.30
47520;DHT22;33252;48.122;11.538;2022-10-30T16:10:33;17.60;97.20
47520;DHT22;33252;48.122;11.538;2022-10-30T16:13:00;17.50;97.20
47520;DHT22;33252;48.122;11.538;2022-10-30T16:15:34;17.50;97.50
47520;DHT22;33252;48.122;11.538;2022-10-30T16:20:29;17.30;97.50
47520;DHT22;33252;48.122;11.538;2022-10-30T16:22:55;17.30;97.80
47520;DHT22;33252;48.122;11.538;2022-10-30T16:25:21;17.20;97.70
47520;DHT22;33252;48.122;11.538;2022-10-30T16:27:47;17.10;98.10
47520;DHT22;33252;48.122;11.538;2022-10-30T16:30:13;17.10;97.60
47520;DHT22;33252;48.122;11.538;2022-10-30T16:32:43;17.20;97.20
47520;DHT22;33252;48.122;11.538;2022-10-30T16:35:11;17.20;97.00
47520;DHT22;33252;48.122;11.538;2022-10-30T16:37:38;17.20;98.00
47520;DHT22;33252;48.122;11.538;2022-10-30T16:42:34;17.00;98.60
47520;DHT22;33252;48.122;11.538;2022-10-30T16:47:46;16.90;98.60
47520;DHT22;33252;48.122;11.538;2022-10-30T16:50:16;16.80;98.50
47520;DHT22;33252;48.122;11.538;2022-10-30T16:52:43;16.80;98.80
47520;DHT22;33252;48.122;11.538;2022-10-30T16:55:19;16.70;99.10
47520;DHT22;33252;48.122;11.538;2022-10-30T16:57:51;16.60;98.70
47520;DHT22;33252;48.122;11.538;2022-10-30T17:00:23;16.60;99.10
47520;DHT22;33252;48.122;11.538;2022-10-30T17:02:50;16.60;98.80
47520;DHT22;33252;48.122;11.538;2022-10-30T17:05:22;16.50;99.00
47520;DHT22;33252;48.122;11.538;2022-10-30T17:08:02;16.50;99.10
47520;DHT22;33252;48.122;11.538;2022-10-30T17:18:43;16.20;99.90
47520;DHT22;33252;48.122;11.538;2022-10-30T17:21:13;16.10;99.90
47520;DHT22;33252;48.122;11.538;2022-10-30T17:23:47;16.10;99.90
47520;DHT22;33252;48.122;11.538;2022-10-30T17:26:14;16.10;99.90
47520;DHT22;33252;48.122;11.538;2022-10-30T17:28:41;16.00;99.90
47520;DHT22;33252;48.122;11.538;2022-10-30T17:31:30;15.90;99.90
47520;DHT22;33252;48.122;11.538;2022-10-30T17:34:18;15.80;99.90
47520;DHT22;33252;48.122;11.538;2022-10-30T17:36:46;15.80;99.90
47520;DHT22;33252;48.122;11.538;2022-10-30T17:39:12;15.70;99.90
47520;DHT22;33252;48.122;11.538;2022-10-30T17:41:38;15.70;99.90
47520;DHT22;33252;48.122;11.538;2022-10-30T17:44:05;15.60;99.90
47520;DHT22;33252;48.122;11.538;2022-10-30T17:46:31;15.60;99.90
47520;DHT22;33252;48.122;11.538;2022-10-30T17:48:57;15.60;99.90
47520;DHT22;33252;48.122;11.538;2022-10-30T17:51:26;15.60;99.90
47520;DHT22;33252;48.122;11.538;2022-10-30T17:53:53;15.60;99.90
47520;DHT22;33252;48.122;11.538;2022-10-30T17:56:25;15.50;99.90
47520;DHT22;33252;48.122;11.538;2022-10-30T17:58:52;15.50;99.90
47520;DHT22;33252;48.122;11.538;2022-10-30T18:01:21;15.40;99.90
47520;DHT22;33252;48.122;11.538;2022-10-30T18:03:49;15.30;99.90